Time;durP1;ratioP1;P1;durP2;ratioP2;P2;SDS_P1;SDS_P2;PMS_P1;PMS_P2;Temp;Humidity;BMP_temperature;BMP_pressure;BME280_temperature;BME280_humidity;BME280_pressure;Samples;Min_cycle;Max_cycle;Signal;HPM_P1;HPM_P2
2022/12/03 00:01:56;;;;;;;16.83;8.60;;;2.70;99.90;;;;;;5006374;28;20561;-29
2022/12/03 00:04:22;;;;;;;16.35;9.05;;;2.70;99.90;;;;;;5005287;28;20033;-30
2022/12/03 00:06:47;;;;;;;16.95;8.55;;;2.70;99.90;;;;;;5007639;28;20046;-30
2022/12/03 00:09:13;;;;;;;18.65;8.70;;;2.70;99.90;;;;;;5005264;28;20023;-33
2022/12/03 00:11:38;;;;;;;15.38;7.32;;;2.70;99.90;;;;;;5007428;28;20025;-30
2022/12/03 00:14:04;;;;;;;16.17;8.80;;;2.70;99.90;;;;;;5007671;28;20030;-32
2022/12/03 00:16:30;;;;;;;19.83;9.15;;;2.70;99.90;;;;;;5007956;28;20564;-30
2022/12/03 00:18:55;;;;;;;19.73;9.52;;;2.70;99.90;;;;;;5001022;28;20045;-30
2022/12/03 00:21:21;;;;;;;18.55;9.40;;;2.70;99.90;;;;;;5006955;28;20387;-30
2022/12/03 00:23:46;;;;;;;15.00;7.57;;;2.70;99.90;;;;;;5003182;28;20064;-31
2022/12/03 00:26:12;;;;;;;15.88;7.60;;;2.70;99.90;;;;;;5005283;28;20029;-30
2022/12/03 00:28:37;;;;;;;15.90;9.93;;;2.70;99.90;;;;;;5008644;28;20556;-30
2022/12/03 00:31:03;;;;;;;18.00;8.73;;;2.70;99.90;;;;;;5008611;28;20034;-32
2022/12/03 00:33:29;;;;;;;16.33;9.23;;;2.60;99.90;;;;;;5002552;28;20027;-33
2022/12/03 00:35:54;;;;;;;16.35;8.40;;;2.60;99.90;;;;;;5003400;28;20415;-31
2022/12/03 00:38:20;;;;;;;19.15;8.40;;;2.60;99.90;;;;;;5007673;28;20310;-31
2022/12/03 00:40:48;;;;;;;15.68;8.50;;;2.60;99.90;;;;;;5004465;28;20034;-30
2022/12/03 00:43:14;;;;;;;;;;;2.60;99.90;;;;;;5006602;28;20037;-30
2022/12/03 00:45:39;;;;;;;17.80;9.25;;;2.60;99.90;;;;;;5005313;28;19913;-30
2022/12/03 00:48:05;;;;;;;21.83;10.35;;;2.60;99.90;;;;;;5005283;28;20109;-30
2022/12/03 00:50:31;;;;;;;20.50;10.00;;;2.50;99.90;;;;;;5006986;28;20403;-30
2022/12/03 00:52:56;;;;;;;19.35;9.60;;;2.50;99.90;;;;;;5008350;28;20095;-32
2022/12/03 00:55:22;;;;;;;20.58;9.82;;;2.40;99.90;;;;;;5003332;28;20034;-30
2022/12/03 00:57:47;;;;;;;20.73;10.45;;;2.40;99.90;;;;;;5004554;28;20036;-33
2022/12/03 01:00:14;;;;;;;18.52;8.60;;;2.40;99.90;;;;;;5000332;28;20026;-30
2022/12/03 01:02:39;;;;;;;22.73;10.38;;;2.30;99.90;;;;;;5006163;28;20042;-30
2022/12/03 01:05:05;;;;;;;22.95;11.15;;;2.30;99.90;;;;;;5007077;28;20041;-32
2022/12/03 01:07:31;;;;;;;24.10;10.88;;;2.30;99.90;;;;;;5007583;28;20087;-30
2022/12/03 01:09:57;;;;;;;23.00;10.63;;;2.30;99.90;;;;;;5007502;28;20030;-30
2022/12/03 01:12:22;;;;;;;22.70;9.35;;;2.30;99.90;;;;;;5004843;28;20029;-30
2022/12/03 01:14:48;;;;;;;23.38;10.82;;;2.30;99.90;;;;;;5006170;28;20030;-32
2022/12/03 01:17:14;;;;;;;24.48;9.82;;;2.20;99.90;;;;;;5004216;28;20048;-31
2022/12/03 01:19:40;;;;;;;24.50;11.05;;;2.10;99.90;;;;;;5004862;28;20030;-31
2022/12/03 01:22:06;;;;;;;24.42;9.85;;;2.10;99.90;;;;;;5012292;28;20132;-33
2022/12/03 01:24:32;;;;;;;22.73;10.50;;;2.10;99.90;;;;;;5006013;28;20439;-30
2022/12/03 01:26:57;;;;;;;21.55;9.85;;;2.00;99.90;;;;;;5011853;28;20053;-30
2022/12/03 01:29:23;;;;;;;21.98;9.50;;;2.00;99.90;;;;;;5006846;28;20026;-30
2022/12/03 01:34:33;;;;;;;26.90;10.63;;;1.90;99.90;;;;;;5011413;28;20138;-33
2022/12/03 01:36:59;;;;;;;20.33;9.82;;;1.80;99.90;;;;;;5009104;28;20109;-33
2022/12/03 01:39:25;;;;;;;24.40;9.63;;;1.80;99.90;;;;;;5009689;28;20207;-30
2022/12/03 01:41:53;;;;;;;21.15;10.05;;;1.80;99.90;;;;;;5008137;28;20099;-30
2022/12/03 01:44:23;;;;;;;20.70;9.27;;;1.80;99.90;;;;;;5008911;28;20030;-31
2022/12/03 01:46:50;;;;;;;12.77;6.85;;;1.80;99.90;;;;;;5006584;28;20818;-30
2022/12/03 01:49:20;;;;;;;26.88;10.07;;;1.90;99.90;;;;;;5010239;28;20077;-30
2022/12/03 01:51:47;;;;;;;22.83;10.20;;;1.90;99.90;;;;;;5010966;28;20046;-30
2022/12/03 01:54:19;;;;;;;21.35;10.00;;;1.80;99.90;;;;;;5007042;28;20132;-31
2022/12/03 01:56:45;;;;;;;17.88;8.98;;;1.90;99.90;;;;;;5008276;28;20026;-31
2022/12/03 01:59:25;;;;;;;23.73;9.15;;;1.90;99.90;;;;;;5008273;28;20038;-31
2022/12/03 02:01:51;;;;;;;18.20;9.05;;;1.90;99.90;;;;;;5001804;28;20037;-31
2022/12/03 02:04:24;;;;;;;24.75;9.25;;;1.90;99.90;;;;;;5011022;28;20034;-33
2022/12/03 02:06:49;;;;;;;25.58;8.85;;;1.90;99.90;;;;;;5011025;28;20049;-30
2022/12/03 02:09:15;;;;;;;24.38;9.57;;;1.90;99.90;;;;;;5005495;28;20030;-34
2022/12/03 02:11:47;;;;;;;23.30;8.68;;;1.90;99.90;;;;;;5009818;28;20033;-31
2022/12/03 02:14:18;;;;;;;25.08;9.63;;;1.90;99.90;;;;;;5004195;28;20725;-30
2022/12/03 02:16:44;;;;;;;19.33;7.53;;;1.90;99.90;;;;;;5009473;28;20033;-30
2022/12/03 02:19:23;;;;;;;23.95;9.98;;;1.90;99.90;;;;;;5006060;28;20041;-30
2022/12/03 02:21:57;;;;;;;25.42;10.88;;;1.90;99.90;;;;;;4993579;28;20390;-34
2022/12/03 02:24:40;;;;;;;20.83;9.65;;;1.90;99.90;;;;;;4993425;28;20040;-34
2022/12/03 02:27:06;;;;;;;20.50;8.70;;;1.90;99.90;;;;;;4993398;28;20213;-33
2022/12/03 02:29:32;;;;;;;21.80;10.32;;;1.90;99.90;;;;;;4989194;28;20030;-37
2022/12/03 02:31:57;;;;;;;22.17;9.68;;;1.90;99.90;;;;;;4992771;28;20489;-32
2022/12/03 02:34:41;;;;;;;17.35;8.52;;;1.80;99.90;;;;;;4992964;28;21371;-30
2022/12/03 02:37:18;;;;;;;24.90;10.23;;;1.80;99.90;;;;;;4992163;28;20037;-32
2022/12/03 02:39:49;;;;;;;22.30;9.43;;;1.80;99.90;;;;;;4991338;28;20295;-30
2022/12/03 02:42:34;;;;;;;26.33;10.13;;;1.80;99.90;;;;;;4991263;28;20034;-30
2022/12/03 02:45:30;;;;;;;23.05;9.85;;;1.80;99.90;;;;;;4995267;28;20364;-30
2022/12/03 02:48:10;;;;;;;22.08;9.43;;;1.80;99.90;;;;;;4984516;28;20046;-32
2022/12/03 02:50:40;;;;;;;16.10;7.53;;;1.80;99.90;;;;;;4993069;28;20052;-29
2022/12/03 02:53:10;;;;;;;29.02;10.77;;;1.80;99.90;;;;;;4997270;28;20030;-30
2022/12/03 02:55:36;;;;;;;21.58;8.55;;;1.80;99.90;;;;;;4997640;28;20491;-29
2022/12/03 02:58:03;;;;;;;29.45;11.93;;;1.80;99.90;;;;;;4997944;28;20045;-33
2022/12/03 03:00:29;;;;;;;21.52;10.40;;;1.70;99.90;;;;;;4996053;28;20038;-33
2022/12/03 03:02:54;;;;;;;28.15;10.13;;;1.70;99.90;;;;;;4996979;28;20026;-34
2022/12/03 03:05:22;;;;;;;20.10;10.13;;;1.70;99.90;;;;;;4996212;28;20180;-31
2022/12/03 03:07:51;;;;;;;23.20;9.68;;;1.70;99.90;;;;;;4997388;28;20038;-32
2022/12/03 03:10:21;;;;;;;27.90;11.70;;;1.70;99.90;;;;;;4996793;28;20357;-30
2022/12/03 03:12:47;;;;;;;23.50;9.38;;;1.70;99.90;;;;;;4998594;28;20417;-33
2022/12/03 03:15:13;;;;;;;22.35;8.68;;;1.70;99.90;;;;;;4996364;28;20088;-29
2022/12/03 03:17:39;;;;;;;23.17;10.65;;;1.70;99.90;;;;;;4996153;28;20087;-33
2022/12/03 03:20:08;;;;;;;22.23;9.98;;;1.70;99.90;;;;;;4995662;28;20044;-31
2022/12/03 03:22:34;;;;;;;;;;;1.70;99.90;;;;;;5001066;28;20459;-30
2022/12/03 03:25:00;;;;;;;18.58;7.32;;;1.80;99.90;;;;;;4995841;28;19922;-30
2022/12/03 03:27:27;;;;;;;18.02;8.65;;;1.70;99.90;;;;;;4997449;28;20425;-33
2022/12/03 03:29:54;;;;;;;22.15;8.75;;;1.80;99.90;;;;;;4998359;28;20026;-30
2022/12/03 03:32:20;;;;;;;22.95;8.98;;;1.80;99.90;;;;;;4994294;28;20030;-33
2022/12/03 03:34:46;;;;;;;21.85;8.50;;;1.80;99.90;;;;;;4997373;28;20168;-30
2022/12/03 03:37:12;;;;;;;21.98;7.95;;;1.80;99.90;;;;;;4996985;28;20036;-33
2022/12/03 03:39:37;;;;;;;18.73;8.55;;;1.80;99.90;;;;;;4996822;28;20030;-31
2022/12/03 03:42:03;;;;;;;20.40;8.98;;;1.80;99.90;;;;;;4997836;28;20042;-32
2022/12/03 03:44:29;;;;;;;19.98;8.70;;;1.70;99.90;;;;;;4998706;28;20029;-29
2022/12/03 03:46:56;;;;;;;22.73;10.32;;;1.70;99.90;;;;;;4994036;28;20109;-29
2022/12/03 03:49:22;;;;;;;26.25;10.57;;;1.70;99.90;;;;;;4990995;28;20531;-30
2022/12/03 03:51:48;;;;;;;16.15;8.20;;;1.70;99.90;;;;;;4994369;28;20069;-32
2022/12/03 03:54:14;;;;;;;18.67;8.63;;;1.70;99.90;;;;;;4991673;28;20129;-33
2022/12/03 03:56:40;;;;;;;20.98;9.32;;;1.70;99.90;;;;;;4991975;28;20134;-30
2022/12/03 03:59:06;;;;;;;20.02;7.80;;;1.70;99.90;;;;;;4992428;28;20081;-33
2022/12/03 04:01:32;;;;;;;16.80;8.13;;;1.70;99.90;;;;;;4991201;28;20037;-32
2022/12/03 04:03:58;;;;;;;19.90;8.77;;;1.70;99.90;;;;;;4991581;28;20537;-30
2022/12/03 04:06:27;;;;;;;23.48;10.93;;;1.70;99.90;;;;;;4993138;28;20442;-30
2022/12/03 04:08:53;;;;;;;26.25;11.63;;;1.70;99.90;;;;;;4992526;28;20072;-31
2022/12/03 04:14:03;;;;;;;28.23;12.05;;;1.70;99.90;;;;;;4990180;28;20045;-30
2022/12/03 04:16:28;;;;;;;28.63;12.13;;;1.60;99.90;;;;;;4989479;28;20030;-33
2022/12/03 04:18:54;;;;;;;30.23;11.80;;;1.50;99.90;;;;;;4993803;28;20061;-33
2022/12/03 04:24:07;;;;;;;25.13;10.60;;;1.50;99.90;;;;;;4989295;28;20048;-31
2022/12/03 04:29:19;;;;;;;24.95;10.23;;;1.50;99.90;;;;;;4990668;28;20041;-35
2022/12/03 04:37:13;;;;;;;26.52;11.45;;;1.50;99.90;;;;;;4995041;28;20048;-30
2022/12/03 04:39:39;;;;;;;35.03;12.43;;;1.50;99.90;;;;;;4991695;28;20034;-35
2022/12/03 04:42:05;;;;;;;31.02;12.00;;;1.40;99.90;;;;;;4990438;28;20387;-36
2022/12/03 04:44:37;;;;;;;31.98;11.55;;;1.40;99.90;;;;;;4988734;28;20041;-34
2022/12/03 04:47:08;;;;;;;29.20;10.68;;;1.40;99.90;;;;;;4989891;28;21264;-32
2022/12/03 04:49:36;;;;;;;26.50;10.02;;;1.40;99.90;;;;;;4988039;28;20076;-29
2022/12/03 04:52:02;;;;;;;33.03;11.80;;;1.40;99.90;;;;;;4992477;28;20113;-30
2022/12/03 04:54:28;;;;;;;27.00;10.23;;;1.40;99.90;;;;;;4994369;28;20033;-30
2022/12/03 04:56:54;;;;;;;28.92;10.02;;;1.40;99.90;;;;;;4995615;28;20030;-30
2022/12/03 04:59:20;;;;;;;31.38;10.80;;;1.40;99.90;;;;;;4990386;28;20403;-32
2022/12/03 05:01:45;;;;;;;30.90;11.30;;;1.40;99.90;;;;;;4995497;28;20550;-31
2022/12/03 05:04:12;;;;;;;29.38;12.20;;;1.40;99.90;;;;;;4994338;28;20495;-31
2022/12/03 05:06:38;;;;;;;28.98;10.45;;;1.40;99.90;;;;;;5001538;28;20050;-32
2022/12/03 05:09:04;;;;;;;28.02;11.25;;;1.40;99.90;;;;;;5010273;28;20076;-30
2022/12/03 05:11:30;;;;;;;33.63;11.23;;;1.30;99.90;;;;;;5011335;28;20064;-32
2022/12/03 05:13:56;;;;;;;27.85;10.20;;;1.30;99.90;;;;;;5009204;28;20026;-30
2022/12/03 05:16:21;;;;;;;26.10;11.13;;;1.30;99.90;;;;;;5016394;28;20072;-33
2022/12/03 05:18:47;;;;;;;27.63;10.45;;;1.30;99.90;;;;;;5007274;28;20027;-30
2022/12/03 05:21:13;;;;;;;25.95;9.38;;;1.30;99.90;;;;;;5007710;28;20129;-29
2022/12/03 05:23:38;;;;;;;32.45;11.45;;;1.40;99.90;;;;;;5006969;28;20494;-33
2022/12/03 05:26:04;;;;;;;24.38;9.45;;;1.30;99.90;;;;;;5025688;28;20038;-30
2022/12/03 05:28:30;;;;;;;24.02;10.45;;;1.30;99.90;;;;;;5007864;28;20026;-30
2022/12/03 05:30:55;;;;;;;21.48;9.70;;;1.30;99.90;;;;;;5008915;28;20037;-33
2022/12/03 05:33:21;;;;;;;21.58;9.07;;;1.30;99.90;;;;;;5005056;28;20101;-32
2022/12/03 05:35:46;;;;;;;34.47;12.77;;;1.20;99.90;;;;;;5008251;28;20038;-31
2022/12/03 05:38:12;;;;;;;27.77;9.60;;;1.20;99.90;;;;;;5005416;28;20375;-30
2022/12/03 05:40:38;;;;;;;25.83;10.95;;;1.20;99.90;;;;;;5008862;28;20403;-29
2022/12/03 05:43:04;;;;;;;21.52;8.57;;;1.20;99.90;;;;;;5010202;28;20382;-32
2022/12/03 05:45:36;;;;;;;25.52;8.70;;;1.10;99.90;;;;;;5009244;28;20083;-33
2022/12/03 05:48:03;;;;;;;25.33;9.38;;;1.10;99.90;;;;;;4999794;28;20030;-32
2022/12/03 05:50:31;;;;;;;25.08;9.60;;;1.10;99.90;;;;;;5004777;28;20021;-30
2022/12/03 05:52:57;;;;;;;24.75;10.32;;;1.10;99.90;;;;;;5006472;28;20038;-32
2022/12/03 05:55:23;;;;;;;22.60;9.75;;;1.10;99.90;;;;;;5005354;28;20041;-31
2022/12/03 05:57:49;;;;;;;24.17;9.07;;;1.20;99.90;;;;;;5002754;28;20403;-30
2022/12/03 06:00:23;;;;;;;20.95;8.80;;;1.20;99.90;;;;;;5006847;28;20037;-33
2022/12/03 06:02:49;;;;;;;27.58;9.65;;;1.20;99.90;;;;;;5006410;28;20109;-30
2022/12/03 06:05:18;;;;;;;23.60;9.50;;;1.30;99.90;;;;;;5006925;28;20125;-30
2022/12/03 06:07:43;;;;;;;;;;;1.20;99.90;;;;;;5010800;28;20034;-30
2022/12/03 06:10:11;;;;;;;22.17;8.77;;;1.20;99.90;;;;;;5010322;28;19932;-30
2022/12/03 06:12:37;;;;;;;20.60;8.73;;;1.20;99.90;;;;;;5004807;28;20226;-31
2022/12/03 06:15:03;;;;;;;16.60;8.02;;;1.10;99.90;;;;;;5007101;28;20146;-30
2022/12/03 06:17:29;;;;;;;20.58;7.43;;;1.00;99.90;;;;;;5005873;28;20041;-30
2022/12/03 06:19:54;;;;;;;16.48;6.68;;;1.00;99.90;;;;;;5008664;28;20030;-29
2022/12/03 06:22:20;;;;;;;18.98;7.65;;;1.00;99.90;;;;;;5010326;28;20038;-30
2022/12/03 06:24:46;;;;;;;18.10;8.32;;;1.00;99.90;;;;;;5001322;28;20026;-31
2022/12/03 06:27:11;;;;;;;15.38;7.25;;;1.00;99.90;;;;;;5007109;28;20045;-30
2022/12/03 06:29:37;;;;;;;12.98;6.30;;;1.00;99.90;;;;;;5005946;28;20026;-30
2022/12/03 06:32:04;;;;;;;18.45;8.63;;;1.00;99.90;;;;;;5006770;28;20232;-31
2022/12/03 06:34:30;;;;;;;24.65;10.50;;;1.10;99.90;;;;;;5007727;28;20380;-30
2022/12/03 06:36:55;;;;;;;19.05;7.63;;;1.00;99.90;;;;;;5003437;28;20038;-30
2022/12/03 06:39:21;;;;;;;13.60;7.03;;;1.00;99.90;;;;;;5008930;28;20037;-30
2022/12/03 06:41:47;;;;;;;18.58;9.15;;;1.00;99.90;;;;;;5006941;28;20040;-30
2022/12/03 06:44:12;;;;;;;21.77;10.07;;;1.00;99.90;;;;;;5004662;28;20030;-31
2022/12/03 06:46:38;;;;;;;21.63;8.20;;;1.00;99.90;;;;;;5005723;28;20472;-30
2022/12/03 06:49:04;;;;;;;23.67;9.30;;;1.10;99.90;;;;;;5009488;28;20034;-32
2022/12/03 06:51:30;;;;;;;14.15;7.32;;;1.00;99.90;;;;;;5007703;28;20502;-30
2022/12/03 06:53:55;;;;;;;28.02;9.15;;;1.00;99.90;;;;;;5006455;28;20022;-31
2022/12/03 06:56:21;;;;;;;16.67;6.85;;;0.90;99.90;;;;;;5006060;28;20498;-29
2022/12/03 06:58:46;;;;;;;28.75;9.40;;;0.90;99.90;;;;;;5004430;28;20074;-30
2022/12/03 07:01:12;;;;;;;13.27;6.28;;;0.90;99.90;;;;;;5008164;28;20040;-29
2022/12/03 07:03:37;;;;;;;27.17;9.63;;;0.90;99.90;;;;;;5009197;28;20026;-30
2022/12/03 07:06:03;;;;;;;22.58;9.45;;;1.00;99.90;;;;;;5006631;28;20038;-31
2022/12/03 07:08:29;;;;;;;17.50;7.30;;;0.90;99.90;;;;;;5006399;28;20034;-30
2022/12/03 07:10:54;;;;;;;16.95;8.45;;;0.90;99.90;;;;;;5005879;28;20100;-32
2022/12/03 07:13:20;;;;;;;15.50;6.32;;;0.90;99.90;;;;;;5006481;28;20468;-31
2022/12/03 07:15:46;;;;;;;15.50;7.95;;;0.90;99.90;;;;;;5008579;28;20030;-30
2022/12/03 07:18:11;;;;;;;14.52;7.10;;;0.90;99.90;;;;;;5002521;28;20133;-32
2022/12/03 07:20:37;;;;;;;28.35;11.05;;;0.90;99.90;;;;;;5006806;28;20038;-30
2022/12/03 07:23:03;;;;;;;23.80;9.82;;;0.90;99.90;;;;;;5008155;28;20026;-30
2022/12/03 07:25:28;;;;;;;18.55;7.05;;;0.90;99.90;;;;;;5005814;28;20030;-29
2022/12/03 07:27:54;;;;;;;16.13;7.05;;;0.90;99.90;;;;;;5005804;28;20105;-34
2022/12/03 07:30:22;;;;;;;15.35;7.15;;;0.90;99.90;;;;;;5007756;28;20399;-31
2022/12/03 07:32:47;;;;;;;16.38;6.63;;;0.80;99.90;;;;;;5007370;28;20034;-31
2022/12/03 07:35:13;;;;;;;14.38;5.88;;;0.70;99.90;;;;;;5007648;28;20033;-30
2022/12/03 07:37:39;;;;;;;15.40;6.90;;;0.80;99.90;;;;;;5009803;28;20061;-30
2022/12/03 07:40:05;;;;;;;16.65;7.43;;;0.80;99.90;;;;;;5006338;28;20104;-32
2022/12/03 07:42:30;;;;;;;19.10;8.73;;;0.80;99.90;;;;;;5007439;28;20109;-30
2022/12/03 07:44:56;;;;;;;15.85;7.20;;;0.80;99.90;;;;;;5005070;28;20108;-30
2022/12/03 07:47:22;;;;;;;21.90;8.15;;;0.70;99.90;;;;;;5004888;28;20040;-30
2022/12/03 07:49:47;;;;;;;19.73;6.80;;;0.70;99.90;;;;;;5002517;28;20030;-30
2022/12/03 07:52:13;;;;;;;18.35;8.15;;;0.70;99.90;;;;;;5004536;28;20034;-30
2022/12/03 07:54:39;;;;;;;16.92;7.70;;;0.70;99.90;;;;;;5007338;28;20026;-30
2022/12/03 07:57:04;;;;;;;23.25;9.10;;;0.70;99.90;;;;;;5001565;28;20444;-30
2022/12/03 07:59:30;;;;;;;16.92;7.53;;;0.60;99.90;;;;;;5007463;28;20034;-31
2022/12/03 08:01:55;;;;;;;16.95;8.02;;;0.60;99.90;;;;;;5005447;28;20431;-30
2022/12/03 08:04:21;;;;;;;17.15;8.15;;;0.60;99.90;;;;;;5007833;28;20030;-30
2022/12/03 08:06:47;;;;;;;21.33;8.60;;;0.60;99.90;;;;;;5022590;28;20052;-30
2022/12/03 08:09:13;;;;;;;19.27;7.60;;;0.60;99.90;;;;;;5006550;28;20545;-31
2022/12/03 08:11:39;;;;;;;21.05;7.88;;;0.50;99.90;;;;;;5008871;28;20077;-30
2022/12/03 08:14:16;;;;;;;13.43;7.00;;;0.50;99.90;;;;;;5005272;28;20029;-30
2022/12/03 08:16:43;;;;;;;18.77;7.38;;;0.50;99.90;;;;;;5006563;28;20034;-30
2022/12/03 08:19:14;;;;;;;20.13;7.28;;;0.50;99.90;;;;;;5004969;28;20022;-33
2022/12/03 08:21:40;;;;;;;22.77;9.35;;;0.50;99.90;;;;;;5003223;28;20029;-33
2022/12/03 08:24:17;;;;;;;18.17;8.05;;;0.50;99.90;;;;;;5001250;28;20033;-32
2022/12/03 08:26:45;;;;;;;17.63;8.02;;;0.50;99.90;;;;;;5003843;28;20040;-31
2022/12/03 08:29:14;;;;;;;20.27;8.50;;;0.50;99.90;;;;;;5007025;28;20084;-34
2022/12/03 08:31:40;;;;;;;15.10;7.80;;;0.50;99.90;;;;;;5010021;28;20277;-30
2022/12/03 08:34:20;;;;;;;20.52;8.52;;;0.50;99.90;;;;;;5010981;28;20045;-29
2022/12/03 08:36:49;;;;;;;14.77;7.15;;;0.50;99.90;;;;;;5006677;28;20026;-30
2022/12/03 08:39:24;;;;;;;19.27;8.82;;;0.50;99.90;;;;;;5013591;28;20021;-30
2022/12/03 08:44:42;;;;;;;20.05;8.13;;;0.60;99.90;;;;;;5009780;28;20877;-30
2022/12/03 08:47:08;;;;;;;21.02;8.60;;;0.60;99.90;;;;;;5014911;28;20026;-30
2022/12/03 08:49:34;;;;;;;20.50;8.45;;;0.60;99.90;;;;;;5008593;28;20034;-30
2022/12/03 08:52:05;;;;;;;19.20;8.23;;;0.60;99.90;;;;;;5011229;28;20030;-30
2022/12/03 08:54:30;;;;;;;23.02;7.80;;;0.60;99.90;;;;;;5012342;28;20569;-30
2022/12/03 08:56:56;;;;;;;18.63;8.18;;;0.70;99.90;;;;;;5012359;28;20141;-32
2022/12/03 08:59:30;;;;;;;21.70;8.63;;;0.70;99.90;;;;;;5012454;28;20036;-30
2022/12/03 09:01:58;;;;;;;19.85;8.57;;;0.70;99.90;;;;;;5010716;28;20033;-32
2022/12/03 09:04:42;;;;;;;20.20;8.10;;;0.80;99.90;;;;;;5011336;28;20029;-30
2022/12/03 09:07:08;;;;;;;17.30;8.18;;;0.80;99.90;;;;;;5010386;28;20049;-30
2022/12/03 09:09:33;;;;;;;17.67;7.68;;;0.80;99.90;;;;;;5010945;28;20030;-30
2022/12/03 09:12:00;;;;;;;24.65;9.80;;;0.90;99.90;;;;;;5013456;28;20480;-30
2022/12/03 09:14:27;;;;;;;19.95;9.55;;;0.80;99.90;;;;;;5012976;28;20541;-31
2022/12/03 09:16:54;;;;;;;24.23;9.55;;;0.90;99.90;;;;;;5014473;28;20540;-30
2022/12/03 09:19:25;;;;;;;18.55;9.48;;;0.80;99.90;;;;;;5010501;28;20427;-29
2022/12/03 09:21:51;;;;;;;18.85;8.77;;;0.80;99.90;;;;;;5010941;28;20103;-30
2022/12/03 09:24:17;;;;;;;19.85;7.43;;;0.80;99.90;;;;;;5008874;28;20048;-30
2022/12/03 09:26:42;;;;;;;34.20;11.35;;;0.80;99.90;;;;;;5010591;28;20022;-30
2022/12/03 09:29:08;;;;;;;27.80;11.43;;;0.80;99.90;;;;;;5013005;28;20026;-30
2022/12/03 09:31:34;;;;;;;21.65;8.93;;;0.80;99.90;;;;;;5008552;28;20034;-29
2022/12/03 09:34:01;;;;;;;24.23;9.75;;;0.80;99.90;;;;;;5007114;28;20472;-31
2022/12/03 09:36:26;;;;;;;21.65;9.13;;;0.80;99.90;;;;;;5011606;28;20092;-30
2022/12/03 09:38:52;;;;;;;16.60;7.03;;;0.80;99.90;;;;;;5008296;28;20029;-31
2022/12/03 09:41:18;;;;;;;17.70;8.85;;;0.80;99.90;;;;;;5006901;28;20036;-30
2022/12/03 09:43:44;;;;;;;16.10;6.90;;;0.80;99.90;;;;;;5006251;28;20483;-33
2022/12/03 09:46:09;;;;;;;16.80;6.93;;;0.80;99.90;;;;;;5011935;28;20041;-30
2022/12/03 09:48:35;;;;;;;11.38;6.30;;;0.80;99.90;;;;;;5006129;28;20036;-31
2022/12/03 09:51:02;;;;;;;14.27;5.88;;;0.80;99.90;;;;;;5002581;28;20030;-30
2022/12/03 09:53:28;;;;;;;12.75;6.18;;;0.80;99.90;;;;;;5006448;28;20108;-30
2022/12/03 09:55:57;;;;;;;16.40;6.60;;;0.80;99.90;;;;;;5004128;28;20105;-30
2022/12/03 09:58:26;;;;;;;13.57;7.60;;;0.80;99.90;;;;;;5004903;28;20038;-32
2022/12/03 10:00:52;;;;;;;13.65;6.68;;;0.80;99.90;;;;;;5000857;28;20037;-31
2022/12/03 10:03:22;;;;;;;13.50;7.15;;;0.80;99.90;;;;;;5005153;28;20026;-31
2022/12/03 10:05:48;;;;;;;13.35;6.93;;;0.80;99.90;;;;;;5003969;28;20491;-30
2022/12/03 10:08:19;;;;;;;13.05;6.28;;;0.90;99.90;;;;;;5007731;28;20058;-30
2022/12/03 10:10:46;;;;;;;18.10;7.40;;;0.90;99.90;;;;;;5005082;28;20026;-30
2022/12/03 10:13:20;;;;;;;10.60;5.30;;;1.00;99.90;;;;;;5005874;28;20026;-30
2022/12/03 10:15:47;;;;;;;14.70;5.85;;;1.00;99.90;;;;;;5000779;28;20033;-33
2022/12/03 10:18:20;;;;;;;12.35;6.65;;;1.00;99.90;;;;;;5005698;28;20044;-30
2022/12/03 10:20:45;;;;;;;16.00;6.32;;;1.00;99.90;;;;;;5010518;28;20034;-30
2022/12/03 10:23:19;;;;;;;15.15;6.60;;;1.00;99.90;;;;;;5000522;28;20550;-33
2022/12/03 10:25:56;;;;;;;14.63;7.07;;;1.00;99.90;;;;;;5004943;28;20084;-30
2022/12/03 10:28:33;;;;;;;15.20;7.32;;;1.00;99.90;;;;;;5007727;28;20502;-30
2022/12/03 10:31:01;;;;;;;17.88;8.32;;;1.00;99.90;;;;;;4999940;28;20026;-34
2022/12/03 10:33:39;;;;;;;17.10;8.52;;;1.00;99.90;;;;;;5001553;28;20495;-30
2022/12/03 10:36:25;;;;;;;20.33;7.78;;;1.00;99.90;;;;;;5005311;28;20042;-32
2022/12/03 10:39:09;;;;;;;18.15;8.15;;;0.90;99.90;;;;;;5005168;28;20391;-30
2022/12/03 10:41:36;;;;;;;21.38;9.13;;;0.90;99.90;;;;;;5007251;28;20152;-35
2022/12/03 10:44:17;;;;;;;18.60;7.90;;;1.00;99.90;;;;;;5005082;28;20026;-30
2022/12/03 10:46:44;;;;;;;17.90;7.95;;;1.00;99.90;;;;;;5001343;28;20037;-30
2022/12/03 10:49:17;;;;;;;23.33;8.90;;;1.00;99.90;;;;;;5004082;28;20041;-29
2022/12/03 10:51:45;;;;;;;16.88;8.07;;;1.10;99.90;;;;;;5005008;28;20022;-30
2022/12/03 10:54:21;;;;;;;21.55;9.25;;;1.10;99.90;;;;;;5006804;28;20122;-30
2022/12/03 10:56:47;;;;;;;17.50;8.20;;;1.10;99.90;;;;;;5004003;28;20035;-31
2022/12/03 10:59:17;;;;;;;17.40;7.25;;;1.10;99.90;;;;;;5005926;28;20025;-30
2022/12/03 11:01:43;;;;;;;20.00;7.90;;;1.10;99.90;;;;;;5005187;28;20030;-31
2022/12/03 11:04:32;;;;;;;19.10;7.90;;;1.10;99.90;;;;;;5007030;28;20037;-32
2022/12/03 11:07:02;;;;;;;17.05;8.45;;;1.00;99.90;;;;;;5005200;28;20053;-30
2022/12/03 11:09:31;;;;;;;12.63;6.35;;;1.10;99.90;;;;;;5006923;28;20026;-34
2022/12/03 11:12:16;;;;;;;22.10;7.82;;;1.10;99.90;;;;;;5006484;28;20038;-31
2022/12/03 11:14:51;;;;;;;14.45;7.97;;;1.10;99.90;;;;;;5004920;28;20038;-32
2022/12/03 11:17:44;;;;;;;27.90;10.60;;;1.10;99.90;;;;;;5003600;28;20053;-35
2022/12/03 11:20:32;;;;;;;21.30;8.95;;;1.10;99.90;;;;;;5004289;28;20480;-31
2022/12/03 11:22:58;;;;;;;17.20;8.77;;;1.20;99.90;;;;;;5005005;28;20037;-33
2022/12/03 11:25:23;;;;;;;16.45;8.20;;;1.20;99.90;;;;;;5002849;28;20045;-32
2022/12/03 11:28:14;;;;;;;22.85;8.75;;;1.20;99.90;;;;;;5006066;28;20030;-32
2022/12/03 11:30:55;;;;;;;16.73;8.02;;;1.20;99.90;;;;;;5006958;28;20061;-32
2022/12/03 11:34:10;;;;;;;18.92;8.98;;;1.20;99.90;;;;;;5005094;28;20069;-30
2022/12/03 11:36:35;;;;;;;15.70;9.20;;;1.20;99.90;;;;;;4998319;28;20137;-31
2022/12/03 11:39:01;;;;;;;20.08;9.60;;;1.30;99.90;;;;;;5006332;28;20101;-30
2022/12/03 11:41:33;;;;;;;17.45;7.20;;;1.20;99.90;;;;;;5003526;28;20041;-31
2022/12/03 11:44:03;;;;;;;20.67;8.05;;;1.10;99.90;;;;;;5004387;28;20115;-30
2022/12/03 11:46:37;;;;;;;18.33;7.43;;;1.10;99.90;;;;;;4997726;28;20026;-32
2022/12/03 11:49:24;;;;;;;26.42;10.02;;;1.10;99.90;;;;;;5017709;28;20032;-31
2022/12/03 11:51:50;;;;;;;31.52;10.52;;;1.10;99.90;;;;;;5004572;28;20121;-30
2022/12/03 11:54:18;;;;;;;23.52;10.05;;;1.10;99.90;;;;;;5005575;28;20105;-30
2022/12/03 11:56:46;;;;;;;31.05;11.65;;;1.10;99.90;;;;;;5004472;28;20034;-29
2022/12/03 11:59:12;;;;;;;29.90;12.68;;;1.10;99.90;;;;;;5005150;28;20041;-32
2022/12/03 12:01:40;;;;;;;33.47;11.15;;;1.10;99.90;;;;;;5000253;28;20113;-33
2022/12/03 12:04:24;;;;;;;27.30;10.18;;;1.10;99.90;;;;;;5001882;28;20391;-32
2022/12/03 12:06:50;;;;;;;24.20;11.43;;;1.10;99.90;;;;;;5002173;28;20527;-31
2022/12/03 12:09:52;;;;;;;27.23;10.13;;;1.10;99.90;;;;;;5006587;28;20033;-30
2022/12/03 12:12:37;;;;;;;22.63;10.15;;;1.20;99.90;;;;;;5006068;28;20026;-30
2022/12/03 12:15:37;;;;;;;28.20;9.98;;;1.20;99.90;;;;;;5003618;28;20038;-30
2022/12/03 12:18:40;;;;;;;15.43;8.48;;;1.20;99.90;;;;;;4998868;28;20387;-32
2022/12/03 12:21:36;;;;;;;20.73;8.70;;;1.20;99.90;;;;;;5001363;28;20073;-30
2022/12/03 12:24:28;;;;;;;16.52;8.20;;;1.20;99.90;;;;;;5004709;28;20441;-32
2022/12/03 12:26:55;;;;;;;29.35;11.48;;;1.20;99.90;;;;;;5002358;28;20498;-30
2022/12/03 12:29:21;;;;;;;30.02;11.52;;;1.30;99.90;;;;;;5002877;28;20136;-33
2022/12/03 12:31:48;;;;;;;26.88;10.18;;;1.20;99.90;;;;;;5003601;28;20590;-30
2022/12/03 12:34:14;;;;;;;28.33;11.15;;;1.30;99.90;;;;;;5004649;28;20530;-31
2022/12/03 12:36:40;;;;;;;19.10;8.90;;;1.20;99.90;;;;;;5004951;28;20029;-33
2022/12/03 12:39:13;;;;;;;31.73;12.52;;;1.20;99.90;;;;;;5002394;28;20553;-33
2022/12/03 12:41:46;;;;;;;33.00;13.18;;;1.20;99.90;;;;;;5003816;28;20149;-30
2022/12/03 12:44:13;;;;;;;29.27;11.52;;;1.10;99.90;;;;;;5002835;28;20030;-29
2022/12/03 12:46:46;;;;;;;33.47;13.45;;;1.10;99.90;;;;;;5003517;28;20030;-29
2022/12/03 12:49:14;;;;;;;26.50;11.85;;;1.10;99.90;;;;;;5000114;28;20088;-31
2022/12/03 12:51:48;;;;;;;22.83;10.48;;;1.10;99.90;;;;;;5002718;28;20049;-29
2022/12/03 12:54:15;;;;;;;32.80;12.70;;;1.10;99.90;;;;;;5004820;28;20568;-33
2022/12/03 12:56:49;;;;;;;32.63;12.35;;;1.10;99.90;;;;;;4994283;28;20029;-29
2022/12/03 12:59:16;;;;;;;25.60;11.05;;;1.10;99.90;;;;;;5003383;28;20467;-30
2022/12/03 13:01:43;;;;;;;24.25;9.88;;;1.10;99.90;;;;;;5000769;28;20030;-33
2022/12/03 13:04:20;;;;;;;27.65;11.30;;;1.10;99.90;;;;;;5001902;28;20153;-30
2022/12/03 13:06:48;;;;;;;27.73;10.52;;;1.10;99.90;;;;;;5003051;28;20054;-33
2022/12/03 13:09:32;;;;;;;27.98;11.18;;;1.00;99.90;;;;;;4977399;28;20065;-31
2022/12/03 13:12:02;;;;;;;23.45;10.38;;;1.00;99.90;;;;;;4999882;28;20026;-33
2022/12/03 13:14:35;;;;;;;20.27;9.60;;;1.00;99.90;;;;;;5001857;28;20058;-30